createdAt,value
2023-05-20T00:03:46.718Z,12.15
2023-05-20T00:08:49.012Z,12.11
2023-05-20T00:13:51.181Z,12.09
2023-05-20T00:18:53.117Z,12.13
2023-05-20T00:23:56.169Z,12.15
2023-05-20T00:28:57.974Z,12.14
2023-05-20T00:33:59.824Z,12.12
2023-05-20T00:39:01.701Z,12.09
2023-05-20T00:44:03.512Z,12.09
2023-05-20T00:49:06.272Z,12.06
2023-05-20T00:54:08.075Z,12.04
2023-05-20T00:59:10.643Z,12.04
2023-05-20T01:04:12.415Z,12.07
2023-05-20T01:09:14.334Z,12.10
2023-05-20T01:14:19.931Z,12.06
2023-05-20T01:19:44.939Z,12.00
2023-05-20T01:24:53.144Z,11.97
2023-05-20T01:29:54.994Z,11.96
2023-05-20T01:34:59.451Z,11.94
2023-05-20T01:40:03.459Z,11.96
2023-05-20T01:45:06.540Z,11.95
2023-05-20T01:50:08.982Z,11.97
2023-05-20T01:55:10.827Z,11.98
2023-05-20T02:00:13.529Z,11.99
2023-05-20T02:05:16.664Z,12.00
2023-05-20T02:10:18.500Z,12.02
2023-05-20T02:15:20.397Z,11.97
2023-05-20T02:20:22.158Z,11.95
2023-05-20T02:25:23.932Z,11.99
2023-05-20T02:30:26.958Z,12.06
2023-05-20T02:35:28.708Z,12.14
2023-05-20T02:40:30.487Z,12.16
2023-05-20T02:45:32.303Z,12.14
2023-05-20T02:50:34.140Z,12.14
2023-05-20T02:55:36.721Z,12.09
2023-05-20T03:00:40.487Z,11.99
2023-05-20T03:05:45.615Z,11.96
2023-05-20T03:10:48.564Z,12.01
2023-05-20T03:15:51.082Z,12.04
2023-05-20T03:20:53.496Z,12.07
2023-05-20T03:25:55.522Z,12.13
2023-05-20T03:30:57.361Z,12.19
2023-05-20T03:35:59.240Z,12.19
2023-05-20T03:41:00.952Z,12.19
2023-05-20T03:46:02.788Z,12.22
2023-05-20T03:51:04.681Z,12.27
2023-05-20T03:56:06.661Z,12.29
2023-05-20T04:01:08.418Z,12.37
2023-05-20T04:06:10.223Z,12.43
2023-05-20T04:11:11.954Z,12.48
2023-05-20T04:16:14.595Z,12.54
2023-05-20T04:21:16.440Z,12.59
2023-05-20T04:26:18.518Z,12.59
2023-05-20T04:31:26.353Z,12.52
2023-05-20T04:36:28.427Z,12.60
2023-05-20T04:41:31.041Z,12.73
2023-05-20T04:46:33.648Z,12.87
2023-05-20T04:51:35.600Z,12.95
2023-05-20T04:56:37.873Z,13.09
2023-05-20T05:01:40.402Z,13.19
2023-05-20T05:06:42.681Z,13.25
2023-05-20T05:11:44.526Z,13.30
2023-05-20T05:16:46.296Z,13.38
2023-05-20T05:21:48.204Z,13.51
2023-05-20T05:26:56.629Z,13.64
2023-05-20T05:31:58.453Z,13.71
2023-05-20T05:37:00.672Z,13.88
2023-05-20T05:42:03.470Z,13.93
2023-05-20T05:47:06.420Z,13.96
2023-05-20T05:52:08.454Z,14.05
2023-05-20T05:57:11.597Z,14.12
2023-05-20T06:02:14.362Z,14.16
2023-05-20T06:07:16.442Z,14.13
2023-05-20T06:12:18.244Z,14.27
2023-05-20T06:17:20.195Z,14.40
2023-05-20T06:22:22.099Z,14.55
2023-05-20T06:27:23.847Z,14.73
2023-05-20T06:32:25.658Z,15.09
2023-05-20T06:37:27.758Z,15.47
2023-05-20T06:42:30.000Z,15.80
2023-05-20T06:47:31.917Z,15.95
2023-05-20T06:52:33.854Z,16.25
2023-05-20T06:57:35.735Z,16.48
2023-05-20T07:02:37.780Z,16.68
2023-05-20T07:07:39.788Z,16.82
2023-05-20T07:12:41.780Z,16.83
2023-05-20T07:17:43.787Z,16.85
2023-05-20T07:22:46.145Z,17.01
2023-05-20T07:27:48.033Z,17.21
2023-05-20T07:32:49.929Z,17.69
2023-05-20T07:37:51.874Z,18.19
2023-05-20T07:42:53.776Z,18.46
2023-05-20T07:47:55.571Z,18.62
2023-05-20T07:52:57.838Z,18.83
2023-05-20T07:58:00.046Z,19.35
2023-05-20T08:03:03.179Z,19.57
2023-05-20T08:08:05.518Z,19.44
2023-05-20T08:13:07.582Z,19.27
2023-05-20T08:18:09.606Z,19.38
2023-05-20T08:23:11.743Z,19.62
2023-05-20T08:28:14.233Z,19.89
2023-05-20T08:33:16.440Z,19.93
2023-05-20T08:38:18.402Z,19.96
2023-05-20T08:43:20.686Z,20.02
2023-05-20T08:48:25.574Z,19.76
2023-05-20T08:53:27.616Z,19.40
2023-05-20T08:58:30.234Z,19.29
2023-05-20T09:03:33.330Z,19.45
2023-05-20T09:08:35.912Z,19.61
2023-05-20T09:13:37.918Z,19.55
2023-05-20T09:18:40.524Z,19.59
2023-05-20T09:23:48.871Z,19.64
2023-05-20T09:28:51.213Z,19.85
2023-05-20T09:33:55.228Z,20.13
2023-05-20T09:39:07.046Z,20.47
2023-05-20T09:44:09.642Z,20.81
2023-05-20T09:49:14.149Z,21.06
2023-05-20T09:54:19.435Z,21.45
2023-05-20T09:59:22.573Z,21.71
2023-05-20T10:04:27.880Z,21.87
2023-05-20T10:10:19.961Z,21.91
2023-05-20T10:15:32.415Z,22.22
2023-05-20T10:20:48.830Z,22.74
2023-05-20T10:25:54.313Z,23.03
2023-05-20T10:30:58.143Z,23.25
2023-05-20T10:36:00.899Z,23.45
2023-05-20T10:41:10.879Z,23.56
2023-05-20T10:46:32.606Z,23.54
2023-05-20T10:51:44.093Z,23.96
2023-05-20T10:56:53.887Z,24.25
2023-05-20T11:01:56.150Z,24.25
2023-05-20T11:06:58.736Z,24.23
2023-05-20T11:12:01.389Z,24.80
2023-05-20T11:17:04.444Z,24.89
2023-05-20T11:22:08.083Z,25.23
2023-05-20T11:27:09.946Z,25.75
2023-05-20T11:32:12.048Z,25.78
2023-05-20T11:37:15.369Z,25.01
2023-05-20T11:42:17.207Z,25.58
2023-05-20T11:47:27.147Z,25.75
2023-05-20T11:52:29.263Z,26.00
2023-05-20T11:57:31.662Z,26.37
2023-05-20T12:02:33.721Z,26.84
2023-05-20T12:07:36.541Z,27.04
2023-05-20T12:12:38.530Z,27.13
2023-05-20T12:17:53.605Z,27.36
2023-05-20T12:22:55.930Z,27.50
2023-05-20T12:27:59.215Z,27.67
2023-05-20T12:33:02.163Z,27.65
2023-05-20T12:38:04.801Z,28.23
2023-05-20T12:43:06.675Z,27.94
2023-05-20T12:48:08.614Z,27.99
2023-05-20T12:53:10.526Z,28.34
2023-05-20T12:58:12.721Z,29.12
2023-05-20T13:03:15.016Z,29.42
2023-05-20T13:08:17.190Z,29.43
2023-05-20T13:13:21.449Z,29.16
2023-05-20T13:18:23.519Z,29.25
2023-05-20T13:23:25.731Z,28.91
2023-05-20T13:28:28.344Z,28.39
2023-05-20T13:33:30.159Z,28.97
2023-05-20T13:38:32.030Z,29.14
2023-05-20T13:43:33.918Z,29.56
2023-05-20T13:48:36.006Z,29.53
2023-05-20T13:53:39.618Z,29.88
2023-05-20T13:58:41.793Z,30.36
2023-05-20T14:03:43.968Z,30.55
2023-05-20T14:08:47.516Z,30.50
2023-05-20T14:13:49.382Z,30.64
2023-05-20T14:18:51.361Z,30.48
2023-05-20T14:23:53.433Z,30.83
2023-05-20T14:28:55.222Z,31.39
2023-05-20T14:33:57.090Z,31.15
2023-05-20T14:38:58.895Z,30.90
2023-05-20T14:44:00.785Z,30.64
2023-05-20T14:49:02.924Z,30.91
2023-05-20T14:54:05.734Z,31.52
2023-05-20T14:59:07.913Z,31.93
2023-05-20T15:04:09.891Z,32.55
2023-05-20T15:09:11.661Z,32.63
2023-05-20T15:14:13.684Z,31.57
2023-05-20T15:19:16.171Z,30.74
2023-05-20T15:24:18.536Z,30.70
2023-05-20T15:29:21.941Z,30.24
2023-05-20T15:34:23.818Z,29.63
2023-05-20T15:39:26.017Z,29.15
2023-05-20T15:44:28.861Z,29.12
2023-05-20T15:49:31.098Z,28.55
2023-05-20T15:54:33.284Z,27.67
2023-05-20T15:59:35.208Z,27.50
2023-05-20T16:04:37.135Z,27.70
2023-05-20T16:09:39.226Z,27.60
2023-05-20T16:14:41.200Z,27.33
2023-05-20T16:19:42.983Z,27.12
2023-05-20T16:24:45.680Z,27.06
2023-05-20T16:29:49.596Z,27.13
2023-05-20T16:34:51.398Z,27.10
2023-05-20T16:39:53.551Z,27.05
2023-05-20T16:44:55.641Z,27.16
2023-05-20T16:49:57.669Z,26.92
2023-05-20T16:55:03.330Z,26.58
2023-05-20T17:00:08.476Z,26.41
2023-05-20T17:05:10.628Z,26.42
2023-05-20T17:10:12.598Z,26.34
2023-05-20T17:15:14.577Z,26.11
2023-05-20T17:20:16.682Z,25.96
2023-05-20T17:25:18.697Z,25.83
2023-05-20T17:30:20.830Z,25.77
2023-05-20T17:35:25.533Z,25.74
2023-05-20T17:40:27.657Z,25.48
2023-05-20T17:45:29.651Z,25.28
2023-05-20T17:50:31.724Z,25.13
2023-05-20T17:55:36.012Z,24.98
2023-05-20T18:00:41.750Z,24.65
2023-05-20T18:05:43.697Z,24.31
2023-05-20T18:10:45.681Z,24.05
2023-05-20T18:15:48.042Z,23.76
2023-05-20T18:20:50.149Z,23.62
2023-05-20T18:25:52.043Z,23.45
2023-05-20T18:30:55.235Z,23.20
2023-05-20T18:35:57.523Z,23.05
2023-05-20T18:41:00.052Z,22.91
2023-05-20T18:46:02.545Z,22.66
2023-05-20T18:51:04.389Z,22.38
2023-05-20T18:56:07.077Z,22.15
2023-05-20T19:01:09.080Z,21.91
2023-05-20T19:06:13.129Z,21.69
2023-05-20T19:11:15.371Z,21.40
2023-05-20T19:16:17.262Z,21.15
2023-05-20T19:21:19.237Z,21.01
2023-05-20T19:26:21.721Z,20.81
2023-05-20T19:31:23.662Z,20.67
2023-05-20T19:36:25.577Z,20.57
2023-05-20T19:41:27.555Z,20.47
2023-05-20T19:46:29.688Z,20.41
2023-05-20T19:51:31.824Z,20.28
2023-05-20T19:56:33.809Z,20.11
2023-05-20T20:01:35.815Z,20.02
2023-05-20T20:06:37.780Z,19.92
2023-05-20T20:11:39.646Z,19.77
2023-05-20T20:16:42.031Z,19.62
2023-05-20T20:21:46.090Z,19.45
2023-05-20T20:26:48.041Z,19.49
2023-05-20T20:31:50.327Z,19.38
2023-05-20T20:36:54.425Z,19.29
2023-05-20T20:41:58.384Z,19.26
2023-05-20T20:47:03.591Z,19.24
2023-05-20T20:52:06.490Z,19.08
2023-05-20T20:57:08.438Z,18.97
2023-05-20T21:02:11.733Z,18.71
2023-05-20T21:07:17.626Z,18.36
2023-05-20T21:12:20.025Z,18.06
2023-05-20T21:17:22.022Z,17.92
2023-05-20T21:22:24.061Z,17.93
2023-05-20T21:27:26.173Z,17.69
2023-05-20T21:32:28.261Z,17.48
2023-05-20T21:37:30.713Z,17.28
2023-05-20T21:42:32.796Z,17.09
2023-05-20T21:47:34.585Z,16.90
2023-05-20T21:52:36.664Z,16.86
2023-05-20T21:57:38.568Z,16.93
2023-05-20T22:02:41.219Z,16.89
2023-05-20T22:07:47.304Z,16.85
2023-05-20T22:12:50.437Z,16.65
2023-05-20T22:17:52.464Z,16.39
2023-05-20T22:22:54.371Z,16.26
2023-05-20T22:27:56.382Z,16.23
2023-05-20T22:32:58.868Z,16.15
2023-05-20T22:38:00.939Z,16.07
2023-05-20T22:43:03.107Z,15.76
2023-05-20T22:48:05.530Z,15.64
2023-05-20T22:53:07.921Z,15.52
2023-05-20T22:58:09.784Z,15.41
2023-05-20T23:03:12.203Z,15.33
2023-05-20T23:08:14.354Z,15.13
2023-05-20T23:13:16.317Z,14.86
2023-05-20T23:18:18.522Z,14.69
2023-05-20T23:23:30.015Z,14.51
2023-05-20T23:28:33.322Z,14.48
2023-05-20T23:33:35.308Z,14.45
2023-05-20T23:38:37.618Z,14.52
2023-05-20T23:43:39.572Z,14.58
2023-05-20T23:48:41.542Z,14.60
2023-05-20T23:53:44.450Z,14.56
2023-05-20T23:58:46.939Z,14.43
